sensor_id;sensor_type;location;lat;lon;timestamp;temperature;humidity
58153;DHT22;43967;51.634;5.566;2023-03-03T00:01:21;17.30;48.50
58153;DHT22;43967;51.634;5.566;2023-03-03T00:06:44;17.30;48.40
58153;DHT22;43967;51.634;5.566;2023-03-03T00:17:38;17.30;48.40
58153;DHT22;43967;51.634;5.566;2023-03-03T00:23:28;17.40;48.40
58153;DHT22;43967;51.634;5.566;2023-03-03T00:28:51;17.40;48.40
58153;DHT22;43967;51.634;5.566;2023-03-03T00:39:38;17.50;48.40
58153;DHT22;43967;51.634;5.566;2023-03-03T00:44:59;17.50;48.40
58153;DHT22;43967;51.634;5.566;2023-03-03T00:50:33;17.50;48.40
58153;DHT22;43967;51.634;5.566;2023-03-03T00:55:55;17.50;48.40
58153;DHT22;43967;51.634;5.566;2023-03-03T01:01:17;17.60;48.40
58153;DHT22;43967;51.634;5.566;2023-03-03T01:06:38;17.60;48.40
58153;DHT22;43967;51.634;5.566;2023-03-03T01:11:59;17.50;48.30
58153;DHT22;43967;51.634;5.566;2023-03-03T01:17:21;17.50;48.30
58153;DHT22;43967;51.634;5.566;2023-03-03T01:22:42;17.50;48.30
58153;DHT22;43967;51.634;5.566;2023-03-03T01:28:04;17.40;48.20
58153;DHT22;43967;51.634;5.566;2023-03-03T01:33:25;17.50;48.20
58153;DHT22;43967;51.634;5.566;2023-03-03T01:38:46;17.40;48.00
58153;DHT22;43967;51.634;5.566;2023-03-03T01:44:13;17.40;47.90
58153;DHT22;43967;51.634;5.566;2023-03-03T01:49:51;17.40;47.70
58153;DHT22;43967;51.634;5.566;2023-03-03T01:55:22;17.40;47.70
58153;DHT22;43967;51.634;5.566;2023-03-03T02:00:52;17.40;47.70
58153;DHT22;43967;51.634;5.566;2023-03-03T02:06:19;17.30;47.70
58153;DHT22;43967;51.634;5.566;2023-03-03T02:11:44;17.30;47.60
58153;DHT22;43967;51.634;5.566;2023-03-03T02:17:06;17.20;47.50
58153;DHT22;43967;51.634;5.566;2023-03-03T02:22:43;17.20;47.50
58153;DHT22;43967;51.634;5.566;2023-03-03T02:28:05;17.20;47.50
58153;DHT22;43967;51.634;5.566;2023-03-03T02:33:26;17.10;47.40
58153;DHT22;43967;51.634;5.566;2023-03-03T02:39:15;17.10;47.60
58153;DHT22;43967;51.634;5.566;2023-03-03T02:44:37;17.00;47.40
58153;DHT22;43967;51.634;5.566;2023-03-03T02:49:58;17.00;47.50
58153;DHT22;43967;51.634;5.566;2023-03-03T02:55:20;17.00;47.40
58153;DHT22;43967;51.634;5.566;2023-03-03T03:00:41;17.00;47.40
58153;DHT22;43967;51.634;5.566;2023-03-03T03:06:02;17.00;47.40
58153;DHT22;43967;51.634;5.566;2023-03-03T03:11:24;16.90;47.30
58153;DHT22;43967;51.634;5.566;2023-03-03T03:16:45;16.90;47.40
58153;DHT22;43967;51.634;5.566;2023-03-03T03:22:06;16.90;47.50
58153;DHT22;43967;51.634;5.566;2023-03-03T03:27:27;16.90;47.80
58153;DHT22;43967;51.634;5.566;2023-03-03T03:32:49;16.90;47.80
58153;DHT22;43967;51.634;5.566;2023-03-03T03:38:10;17.00;47.90
58153;DHT22;43967;51.634;5.566;2023-03-03T03:43:32;17.00;48.00
58153;DHT22;43967;51.634;5.566;2023-03-03T03:48:53;17.00;48.00
58153;DHT22;43967;51.634;5.566;2023-03-03T03:54:15;17.00;48.00
58153;DHT22;43967;51.634;5.566;2023-03-03T03:59:36;17.10;48.00
58153;DHT22;43967;51.634;5.566;2023-03-03T04:04:57;17.10;48.00
58153;DHT22;43967;51.634;5.566;2023-03-03T04:10:19;17.20;48.10
58153;DHT22;43967;51.634;5.566;2023-03-03T04:15:41;17.20;48.00
58153;DHT22;43967;51.634;5.566;2023-03-03T04:21:02;17.20;48.00
58153;DHT22;43967;51.634;5.566;2023-03-03T04:26:23;17.20;48.00
58153;DHT22;43967;51.634;5.566;2023-03-03T04:31:45;17.30;48.10
58153;DHT22;43967;51.634;5.566;2023-03-03T04:37:06;17.20;48.00
58153;DHT22;43967;51.634;5.566;2023-03-03T04:42:27;17.30;48.10
58153;DHT22;43967;51.634;5.566;2023-03-03T04:47:48;17.30;48.10
58153;DHT22;43967;51.634;5.566;2023-03-03T04:53:10;17.30;48.10
58153;DHT22;43967;51.634;5.566;2023-03-03T04:58:31;17.30;48.10
58153;DHT22;43967;51.634;5.566;2023-03-03T05:03:52;17.40;48.10
58153;DHT22;43967;51.634;5.566;2023-03-03T05:09:14;17.40;48.10
58153;DHT22;43967;51.634;5.566;2023-03-03T05:14:35;17.30;48.00
58153;DHT22;43967;51.634;5.566;2023-03-03T05:19:56;17.30;48.10
58153;DHT22;43967;51.634;5.566;2023-03-03T05:25:17;17.30;48.10
58153;DHT22;43967;51.634;5.566;2023-03-03T05:30:39;17.20;47.90
58153;DHT22;43967;51.634;5.566;2023-03-03T05:36:00;17.20;47.90
58153;DHT22;43967;51.634;5.566;2023-03-03T05:41:22;17.20;47.80
58153;DHT22;43967;51.634;5.566;2023-03-03T05:46:43;17.10;47.70
58153;DHT22;43967;51.634;5.566;2023-03-03T05:52:04;17.20;47.60
58153;DHT22;43967;51.634;5.566;2023-03-03T05:57:26;17.10;47.50
58153;DHT22;43967;51.634;5.566;2023-03-03T06:02:47;17.20;47.50
58153;DHT22;43967;51.634;5.566;2023-03-03T06:08:08;17.10;47.40
58153;DHT22;43967;51.634;5.566;2023-03-03T06:13:30;17.10;47.40
58153;DHT22;43967;51.634;5.566;2023-03-03T06:18:51;17.00;47.40
58153;DHT22;43967;51.634;5.566;2023-03-03T06:24:12;17.00;47.40
58153;DHT22;43967;51.634;5.566;2023-03-03T06:29:33;16.90;47.30
58153;DHT22;43967;51.634;5.566;2023-03-03T06:34:55;16.90;47.30
58153;DHT22;43967;51.634;5.566;2023-03-03T06:40:16;16.90;47.30
58153;DHT22;43967;51.634;5.566;2023-03-03T06:45:38;16.90;47.40
58153;DHT22;43967;51.634;5.566;2023-03-03T06:51:01;16.80;47.30
58153;DHT22;43967;51.634;5.566;2023-03-03T06:56:24;16.80;47.30
58153;DHT22;43967;51.634;5.566;2023-03-03T07:01:49;16.80;47.40
58153;DHT22;43967;51.634;5.566;2023-03-03T07:07:23;16.80;47.40
58153;DHT22;43967;51.634;5.566;2023-03-03T07:12:45;16.70;47.40
58153;DHT22;43967;51.634;5.566;2023-03-03T07:18:38;16.70;47.40
58153;DHT22;43967;51.634;5.566;2023-03-03T07:24:28;16.70;47.40
58153;DHT22;43967;51.634;5.566;2023-03-03T07:29:51;16.70;47.40
58153;DHT22;43967;51.634;5.566;2023-03-03T07:35:35;16.60;48.10
58153;DHT22;43967;51.634;5.566;2023-03-03T07:40:58;16.70;51.40
58153;DHT22;43967;51.634;5.566;2023-03-03T07:46:39;16.70;51.50
58153;DHT22;43967;51.634;5.566;2023-03-03T07:52:15;16.70;51.40
58153;DHT22;43967;51.634;5.566;2023-03-03T07:57:37;16.70;51.00
58153;DHT22;43967;51.634;5.566;2023-03-03T08:03:19;16.70;50.70
58153;DHT22;43967;51.634;5.566;2023-03-03T08:08:41;16.80;50.50
58153;DHT22;43967;51.634;5.566;2023-03-03T08:14:09;16.80;50.40
58153;DHT22;43967;51.634;5.566;2023-03-03T08:19:31;17.00;50.90
58153;DHT22;43967;51.634;5.566;2023-03-03T08:24:54;17.10;50.80
58153;DHT22;43967;51.634;5.566;2023-03-03T08:30:15;17.30;50.80
58153;DHT22;43967;51.634;5.566;2023-03-03T08:35:36;17.40;50.60
58153;DHT22;43967;51.634;5.566;2023-03-03T08:40:58;17.50;50.60
58153;DHT22;43967;51.634;5.566;2023-03-03T08:46:19;17.50;50.50
58153;DHT22;43967;51.634;5.566;2023-03-03T08:51:41;17.60;50.40
58153;DHT22;43967;51.634;5.566;2023-03-03T08:57:02;17.80;50.30
58153;DHT22;43967;51.634;5.566;2023-03-03T09:02:23;17.80;50.20
58153;DHT22;43967;51.634;5.566;2023-03-03T09:07:45;17.90;50.20
58153;DHT22;43967;51.634;5.566;2023-03-03T09:13:14;18.00;50.10
58153;DHT22;43967;51.634;5.566;2023-03-03T09:18:37;18.10;50.10
58153;DHT22;43967;51.634;5.566;2023-03-03T09:23:59;18.20;50.10
58153;DHT22;43967;51.634;5.566;2023-03-03T09:29:25;18.20;50.20
58153;DHT22;43967;51.634;5.566;2023-03-03T09:34:46;18.30;50.10
58153;DHT22;43967;51.634;5.566;2023-03-03T09:40:36;18.30;50.00
58153;DHT22;43967;51.634;5.566;2023-03-03T09:46:07;18.40;50.00
58153;DHT22;43967;51.634;5.566;2023-03-03T09:51:48;18.50;49.90
58153;DHT22;43967;51.634;5.566;2023-03-03T09:57:19;18.40;49.80
58153;DHT22;43967;51.634;5.566;2023-03-03T10:08:45;18.30;49.70
58153;DHT22;43967;51.634;5.566;2023-03-03T10:25:40;18.00;49.90
58153;DHT22;43967;51.634;5.566;2023-03-03T10:31:25;17.90;49.90
58153;DHT22;43967;51.634;5.566;2023-03-03T11:05:42;17.60;48.50
58153;DHT22;43967;51.634;5.566;2023-03-03T11:16:44;17.50;48.10
58153;DHT22;43967;51.634;5.566;2023-03-03T11:34:06;17.50;47.70
58153;DHT22;43967;51.634;5.566;2023-03-03T11:39:31;17.40;47.50
58153;DHT22;43967;51.634;5.566;2023-03-03T11:45:00;17.30;47.60
58153;DHT22;43967;51.634;5.566;2023-03-03T11:50:45;17.30;47.40
58153;DHT22;43967;51.634;5.566;2023-03-03T12:02:14;17.20;47.60
58153;DHT22;43967;51.634;5.566;2023-03-03T12:24:39;17.40;47.40
58153;DHT22;43967;51.634;5.566;2023-03-03T12:41:56;17.60;48.30
58153;DHT22;43967;51.634;5.566;2023-03-03T12:47:34;17.50;48.20
58153;DHT22;43967;51.634;5.566;2023-03-03T12:53:29;17.50;48.00
58153;DHT22;43967;51.634;5.566;2023-03-03T13:04:45;17.40;47.70
58153;DHT22;43967;51.634;5.566;2023-03-03T13:21:52;17.30;47.40
58153;DHT22;43967;51.634;5.566;2023-03-03T13:27:19;17.20;47.40
58153;DHT22;43967;51.634;5.566;2023-03-03T13:32:55;17.20;47.30
58153;DHT22;43967;51.634;5.566;2023-03-03T13:38:26;17.20;47.20
58153;DHT22;43967;51.634;5.566;2023-03-03T14:06:17;17.20;47.10
58153;DHT22;43967;51.634;5.566;2023-03-03T14:11:52;17.10;47.00
58153;DHT22;43967;51.634;5.566;2023-03-03T14:23:25;17.10;47.10
58153;DHT22;43967;51.634;5.566;2023-03-03T14:28:46;17.00;47.00
58153;DHT22;43967;51.634;5.566;2023-03-03T14:34:37;17.10;47.10
58153;DHT22;43967;51.634;5.566;2023-03-03T14:40:09;17.00;47.00
58153;DHT22;43967;51.634;5.566;2023-03-03T14:45:38;17.00;47.00
58153;DHT22;43967;51.634;5.566;2023-03-03T14:51:22;17.00;47.20
58153;DHT22;43967;51.634;5.566;2023-03-03T15:02:36;17.30;52.60
58153;DHT22;43967;51.634;5.566;2023-03-03T15:08:08;17.50;52.80
58153;DHT22;43967;51.634;5.566;2023-03-03T15:13:34;17.50;52.80
58153;DHT22;43967;51.634;5.566;2023-03-03T15:25:00;17.60;55.10
58153;DHT22;43967;51.634;5.566;2023-03-03T15:30:40;17.70;54.90
58153;DHT22;43967;51.634;5.566;2023-03-03T15:53:16;18.00;54.50
58153;DHT22;43967;51.634;5.566;2023-03-03T16:04:36;18.00;54.50
58153;DHT22;43967;51.634;5.566;2023-03-03T16:26:33;18.00;55.00
58153;DHT22;43967;51.634;5.566;2023-03-03T16:37:47;17.80;54.50
58153;DHT22;43967;51.634;5.566;2023-03-03T16:48:50;17.90;55.10
58153;DHT22;43967;51.634;5.566;2023-03-03T17:00:03;17.80;54.10
58153;DHT22;43967;51.634;5.566;2023-03-03T17:05:42;17.80;54.90
58153;DHT22;43967;51.634;5.566;2023-03-03T17:11:26;17.80;54.20
58153;DHT22;43967;51.634;5.566;2023-03-03T17:17:03;17.80;54.90
58153;DHT22;43967;51.634;5.566;2023-03-03T17:28:19;17.80;55.70
58153;DHT22;43967;51.634;5.566;2023-03-03T17:39:58;17.80;57.60
58153;DHT22;43967;51.634;5.566;2023-03-03T17:45:23;17.90;57.60
58153;DHT22;43967;51.634;5.566;2023-03-03T18:02:26;17.70;55.70
58153;DHT22;43967;51.634;5.566;2023-03-03T18:19:16;17.50;54.40
58153;DHT22;43967;51.634;5.566;2023-03-03T18:30:23;17.40;53.80
58153;DHT22;43967;51.634;5.566;2023-03-03T18:35:47;17.40;53.70
58153;DHT22;43967;51.634;5.566;2023-03-03T18:41:17;17.30;53.50
58153;DHT22;43967;51.634;5.566;2023-03-03T18:57:38;17.10;52.20
58153;DHT22;43967;51.634;5.566;2023-03-03T19:02:59;17.10;52.00
58153;DHT22;43967;51.634;5.566;2023-03-03T19:08:28;17.10;52.00
58153;DHT22;43967;51.634;5.566;2023-03-03T19:13:49;17.00;51.80
58153;DHT22;43967;51.634;5.566;2023-03-03T19:19:15;17.00;51.80
58153;DHT22;43967;51.634;5.566;2023-03-03T19:24:37;17.00;51.80
58153;DHT22;43967;51.634;5.566;2023-03-03T19:30:14;17.00;51.70
58153;DHT22;43967;51.634;5.566;2023-03-03T19:36:14;16.90;51.60
58153;DHT22;43967;51.634;5.566;2023-03-03T19:42:11;16.90;51.60
58153;DHT22;43967;51.634;5.566;2023-03-03T19:53:52;16.90;51.60
58153;DHT22;43967;51.634;5.566;2023-03-03T19:59:41;16.80;51.50
58153;DHT22;43967;51.634;5.566;2023-03-03T20:11:01;16.80;51.40
58153;DHT22;43967;51.634;5.566;2023-03-03T20:16:28;16.70;51.30
58153;DHT22;43967;51.634;5.566;2023-03-03T20:39:05;17.10;55.10
58153;DHT22;43967;51.634;5.566;2023-03-03T20:50:26;17.30;55.50
58153;DHT22;43967;51.634;5.566;2023-03-03T21:07:34;17.50;55.90
58153;DHT22;43967;51.634;5.566;2023-03-03T21:12:57;17.50;55.70
58153;DHT22;43967;51.634;5.566;2023-03-03T21:18:21;17.50;55.50
58153;DHT22;43967;51.634;5.566;2023-03-03T21:23:43;17.50;55.40
58153;DHT22;43967;51.634;5.566;2023-03-03T21:29:04;17.50;55.20
58153;DHT22;43967;51.634;5.566;2023-03-03T21:34:28;17.50;55.00
58153;DHT22;43967;51.634;5.566;2023-03-03T21:40:11;17.60;55.00
58153;DHT22;43967;51.634;5.566;2023-03-03T21:45:33;17.50;54.80
58153;DHT22;43967;51.634;5.566;2023-03-03T21:50:54;17.50;54.60
58153;DHT22;43967;51.634;5.566;2023-03-03T21:56:15;17.50;54.40
58153;DHT22;43967;51.634;5.566;2023-03-03T22:01:36;17.40;54.30
58153;DHT22;43967;51.634;5.566;2023-03-03T22:06:58;17.40;54.00
58153;DHT22;43967;51.634;5.566;2023-03-03T22:12:19;17.30;53.80
58153;DHT22;43967;51.634;5.566;2023-03-03T22:17:40;17.30;53.70
58153;DHT22;43967;51.634;5.566;2023-03-03T22:23:01;17.30;53.40
58153;DHT22;43967;51.634;5.566;2023-03-03T22:28:23;17.20;53.20
58153;DHT22;43967;51.634;5.566;2023-03-03T22:33:45;17.40;57.50
58153;DHT22;43967;51.634;5.566;2023-03-03T22:39:06;17.80;59.40
58153;DHT22;43967;51.634;5.566;2023-03-03T22:44:27;17.70;57.90
58153;DHT22;43967;51.634;5.566;2023-03-03T22:49:48;17.70;57.10
58153;DHT22;43967;51.634;5.566;2023-03-03T22:55:11;17.70;56.50
58153;DHT22;43967;51.634;5.566;2023-03-03T23:00:33;17.60;56.00
58153;DHT22;43967;51.634;5.566;2023-03-03T23:05:55;17.60;55.70
58153;DHT22;43967;51.634;5.566;2023-03-03T23:11:16;17.50;55.70
58153;DHT22;43967;51.634;5.566;2023-03-03T23:16:37;17.40;55.80
58153;DHT22;43967;51.634;5.566;2023-03-03T23:21:59;17.30;55.80
58153;DHT22;43967;51.634;5.566;2023-03-03T23:27:20;17.40;55.70
58153;DHT22;43967;51.634;5.566;2023-03-03T23:32:41;17.40;55.60
58153;DHT22;43967;51.634;5.566;2023-03-03T23:38:02;17.40;55.40
58153;DHT22;43967;51.634;5.566;2023-03-03T23:43:24;17.40;55.30
58153;DHT22;43967;51.634;5.566;2023-03-03T23:48:45;17.40;55.30
58153;DHT22;43967;51.634;5.566;2023-03-03T23:54:06;17.40;55.10
58153;DHT22;43967;51.634;5.566;2023-03-03T23:59:28;17.50;55.10
